Time;durP1;ratioP1;P1;durP2;ratioP2;P2;SDS_P1;SDS_P2;PMS_P1;PMS_P2;Temp;Humidity;BMP_temperature;BMP_pressure;BME280_temperature;BME280_humidity;BME280_pressure;Samples;Min_cycle;Max_cycle;Signal;HPM_P1;HPM_P2
2021/05/01 00:01:04;;;;;;;5.90;5.40;;;9.40;99.90;;;;;;5031660;28;20041;-79
2021/05/01 00:03:30;;;;;;;5.75;5.03;;;9.30;99.90;;;;;;5031850;28;20032;-79
2021/05/01 00:05:56;;;;;;;7.20;5.10;;;9.10;99.90;;;;;;5033272;28;20025;-79
2021/05/01 00:08:23;;;;;;;6.22;5.40;;;9.00;99.90;;;;;;5034852;28;20612;-79
2021/05/01 00:10:49;;;;;;;9.30;6.00;;;9.00;99.90;;;;;;5032600;28;20056;-79
2021/05/01 00:13:15;;;;;;;6.95;5.35;;;9.00;99.90;;;;;;5031402;28;20032;-79
2021/05/01 00:15:41;;;;;;;8.13;6.53;;;8.90;99.90;;;;;;5035013;28;20033;-79
2021/05/01 00:18:07;;;;;;;8.80;5.60;;;8.90;99.90;;;;;;5031220;28;20022;-78
2021/05/01 00:20:33;;;;;;;6.70;5.45;;;8.80;99.90;;;;;;5033307;28;20037;-78
2021/05/01 00:22:58;;;;;;;4.95;4.55;;;8.70;99.90;;;;;;5031387;28;20155;-78
2021/05/01 00:25:24;;;;;;;6.95;5.82;;;8.70;99.90;;;;;;5031407;28;20458;-78
2021/05/01 00:27:50;;;;;;;8.55;6.47;;;8.70;99.90;;;;;;5036499;28;20123;-77
2021/05/01 00:30:16;;;;;;;6.95;5.63;;;8.70;99.90;;;;;;5031513;28;20435;-77
2021/05/01 00:32:42;;;;;;;6.20;5.60;;;8.60;99.90;;;;;;5031597;28;20057;-77
2021/05/01 00:35:08;;;;;;;6.55;5.93;;;8.70;99.90;;;;;;5028819;28;20502;-77
2021/05/01 00:37:34;;;;;;;8.25;5.88;;;8.70;99.90;;;;;;5031541;28;20440;-77
2021/05/01 00:40:00;;;;;;;5.97;5.38;;;8.80;99.90;;;;;;5032273;28;20071;-77
2021/05/01 00:42:26;;;;;;;6.47;5.88;;;8.90;99.90;;;;;;5034191;28;20036;-77
2021/05/01 00:44:51;;;;;;;7.32;6.20;;;9.00;99.90;;;;;;5030660;28;20041;-77
2021/05/01 00:47:17;;;;;;;7.05;5.72;;;9.10;99.90;;;;;;5030555;28;20091;-77
2021/05/01 00:49:43;;;;;;;8.52;6.75;;;10.30;99.90;;;;;;5031842;28;20396;-77
2021/05/01 00:52:09;;;;;;;8.48;6.22;;;10.30;99.90;;;;;;5032260;28;20064;-77
2021/05/01 00:54:34;;;;;;;7.63;6.82;;;10.40;99.90;;;;;;5032680;28;20460;-77
2021/05/01 00:57:00;;;;;;;7.10;6.40;;;10.70;99.90;;;;;;5036121;28;20422;-77
2021/05/01 00:59:26;;;;;;;7.20;6.28;;;10.70;99.90;;;;;;5037021;28;20026;-77
2021/05/01 01:01:54;;;;;;;7.28;6.60;;;10.60;99.90;;;;;;5036095;28;20064;-78
2021/05/01 01:04:20;;;;;;;9.25;6.80;;;10.50;99.90;;;;;;5032549;28;20157;-77
2021/05/01 01:06:47;;;;;;;10.10;7.15;;;10.60;99.90;;;;;;5031237;28;20108;-77
2021/05/01 01:09:13;;;;;;;9.73;7.45;;;10.50;99.90;;;;;;5029521;28;20065;-77
2021/05/01 01:11:40;;;;;;;11.82;8.25;;;10.60;99.90;;;;;;5030814;28;20048;-77
2021/05/01 01:14:07;;;;;;;9.32;8.15;;;10.50;99.90;;;;;;5036575;28;20021;-77
2021/05/01 01:16:34;;;;;;;12.27;7.70;;;10.30;99.90;;;;;;5030287;28;20017;-77
2021/05/01 01:19:00;;;;;;;10.68;7.93;;;10.20;99.90;;;;;;5034744;28;20025;-77
2021/05/01 01:21:27;;;;;;;14.18;8.38;;;10.20;99.90;;;;;;5035517;28;20598;-77
2021/05/01 01:23:53;;;;;;;10.30;7.53;;;10.20;99.90;;;;;;5036140;28;20021;-77
2021/05/01 01:26:19;;;;;;;12.98;7.82;;;10.10;99.90;;;;;;5035787;28;20026;-77
2021/05/01 01:28:47;;;;;;;10.45;8.15;;;10.10;99.90;;;;;;5038891;28;20056;-77
2021/05/01 01:31:13;;;;;;;14.10;8.10;;;10.00;99.90;;;;;;5034719;28;20052;-77
2021/05/01 01:33:39;;;;;;;14.18;8.93;;;10.30;99.90;;;;;;5034750;28;20025;-77
2021/05/01 01:36:06;;;;;;;10.57;8.43;;;10.40;99.90;;;;;;5041984;28;20047;-77
2021/05/01 01:38:32;;;;;;;14.18;8.93;;;10.20;99.90;;;;;;5039121;28;20126;-77
2021/05/01 01:40:58;;;;;;;14.05;9.07;;;10.30;99.90;;;;;;5033934;28;20025;-77
2021/05/01 01:43:27;;;;;;;16.48;10.32;;;10.30;99.90;;;;;;5035055;28;20108;-77
2021/05/01 01:45:53;;;;;;;12.55;9.02;;;10.60;99.90;;;;;;5033967;28;20037;-77
2021/05/01 01:48:19;;;;;;;10.90;9.48;;;11.00;99.90;;;;;;5035413;28;20120;-77
2021/05/01 01:50:45;;;;;;;10.88;8.65;;;11.10;99.90;;;;;;5035191;28;20033;-77
2021/05/01 01:53:12;;;;;;;15.88;9.85;;;11.60;99.90;;;;;;5034037;28;20033;-77
2021/05/01 01:55:37;;;;;;;19.40;11.90;;;12.00;99.90;;;;;;5036012;28;20029;-77
2021/05/01 01:58:04;;;;;;;15.23;10.00;;;12.70;99.90;;;;;;5033865;28;20067;-77
2021/05/01 02:00:30;;;;;;;13.40;10.15;;;14.00;99.90;;;;;;5033967;28;20435;-77
2021/05/01 02:02:57;;;;;;;17.67;12.32;;;16.90;99.90;;;;;;5034665;28;20431;-77
2021/05/01 02:05:23;;;;;;;14.50;10.68;;;17.30;99.90;;;;;;5036684;28;20064;-77
2021/05/01 02:07:49;;;;;;;23.73;13.57;;;17.90;99.90;;;;;;5035857;28;20103;-77
2021/05/01 02:10:17;;;;;;;17.73;12.75;;;18.00;99.90;;;;;;5036371;28;20082;-77
2021/05/01 02:12:44;;;;;;;23.67;12.38;;;18.40;99.90;;;;;;5033457;28;20018;-77
2021/05/01 02:15:16;;;;;;;17.23;12.40;;;18.40;99.90;;;;;;5033089;28;20052;-77
2021/05/01 02:17:46;;;;;;;17.48;12.55;;;18.40;99.90;;;;;;5033500;28;20049;-77
2021/05/01 02:20:17;;;;;;;18.00;11.93;;;18.40;99.90;;;;;;5034734;28;20100;-75
2021/05/01 02:22:43;;;;;;;14.40;11.02;;;18.20;99.90;;;;;;5033609;28;20014;-76
2021/05/01 02:25:11;;;;;;;17.55;12.27;;;18.00;99.90;;;;;;5035463;28;20158;-76
2021/05/01 02:27:37;;;;;;;17.70;11.90;;;17.80;99.90;;;;;;5035768;28;20030;-75
2021/05/01 02:30:17;;;;;;;17.70;10.93;;;18.20;99.90;;;;;;5036768;28;20025;-75
2021/05/01 02:32:43;;;;;;;;;;;18.60;99.90;;;;;;5033007;28;20025;-75
2021/05/01 02:35:11;;;;;;;14.20;11.45;;;18.50;99.90;;;;;;5034335;28;20430;-75
2021/05/01 02:37:37;;;;;;;17.30;12.27;;;18.40;99.90;;;;;;5033542;28;20025;-75
2021/05/01 02:40:06;;;;;;;16.65;13.07;;;18.50;99.90;;;;;;5034280;28;20100;-75
2021/05/01 02:42:32;;;;;;;15.07;12.63;;;18.60;99.90;;;;;;5035108;28;20025;-75
2021/05/01 02:44:58;;;;;;;16.80;13.38;;;18.50;99.90;;;;;;5032019;28;20018;-75
2021/05/01 02:47:23;;;;;;;17.10;11.48;;;18.40;99.90;;;;;;5035758;28;20099;-75
2021/05/01 02:49:49;;;;;;;21.30;11.50;;;18.20;99.90;;;;;;5032730;28;20017;-75
2021/05/01 02:52:15;;;;;;;15.10;12.15;;;18.60;99.90;;;;;;5036827;28;20026;-75
2021/05/01 02:54:41;;;;;;;15.30;11.68;;;19.40;99.90;;;;;;5032691;28;20068;-75
2021/05/01 02:57:07;;;;;;;15.25;12.18;;;20.30;99.90;;;;;;5032476;28;20110;-75
2021/05/01 02:59:32;;;;;;;17.88;13.32;;;21.60;99.90;;;;;;5034748;28;20369;-75
2021/05/01 03:01:58;;;;;;;26.20;15.82;;;21.30;99.90;;;;;;5032948;28;20046;-75
2021/05/01 03:04:24;;;;;;;16.55;13.05;;;21.90;99.90;;;;;;5033222;28;20039;-75
2021/05/01 03:06:50;;;;;;;19.85;14.02;;;21.90;99.90;;;;;;5034009;28;20487;-75
2021/05/01 03:09:16;;;;;;;16.38;13.88;;;21.40;99.90;;;;;;5032606;28;20033;-75
2021/05/01 03:11:41;;;;;;;20.70;14.93;;;21.30;99.90;;;;;;5032712;28;20032;-75
2021/05/01 03:14:07;;;;;;;28.08;17.00;;;21.20;99.90;;;;;;5033171;28;20037;-76
2021/05/01 03:16:33;;;;;;;23.35;17.55;;;21.10;99.90;;;;;;5032370;28;20132;-75
2021/05/01 03:18:59;;;;;;;20.63;15.23;;;21.10;99.90;;;;;;5032576;28;20037;-75
2021/05/01 03:21:25;;;;;;;23.10;16.02;;;21.10;99.90;;;;;;5035280;28;20505;-75
2021/05/01 03:23:52;;;;;;;20.90;14.93;;;20.90;99.90;;;;;;5032419;28;20624;-75
2021/05/01 03:26:20;;;;;;;21.35;16.45;;;20.70;99.90;;;;;;5032370;28;20108;-75
2021/05/01 03:28:46;;;;;;;20.85;14.93;;;20.70;99.90;;;;;;5029278;28;20022;-75
2021/05/01 03:31:11;;;;;;;22.27;13.02;;;20.60;99.90;;;;;;5033346;28;20100;-75
2021/05/01 03:33:37;;;;;;;21.58;14.85;;;20.40;99.90;;;;;;5032095;28;20159;-75
2021/05/01 03:36:04;;;;;;;15.85;10.93;;;20.30;99.90;;;;;;5034344;28;20494;-75
2021/05/01 03:38:31;;;;;;;16.17;10.77;;;20.00;99.90;;;;;;5036796;28;20036;-75
2021/05/01 03:40:57;;;;;;;13.85;11.38;;;20.00;99.90;;;;;;5033213;28;20017;-76
2021/05/01 03:43:23;;;;;;;16.55;11.63;;;20.00;99.90;;;;;;5028796;28;20441;-75
2021/05/01 03:45:49;;;;;;;17.75;12.68;;;19.80;99.90;;;;;;5031358;28;20021;-75
2021/05/01 03:48:14;;;;;;;17.88;12.32;;;19.90;99.90;;;;;;5032704;28;20025;-76
2021/05/01 03:50:40;;;;;;;15.70;11.43;;;19.90;99.90;;;;;;5033113;28;20025;-75
2021/05/01 03:53:06;;;;;;;19.50;12.50;;;19.80;99.90;;;;;;5034792;28;20471;-75
2021/05/01 03:55:34;;;;;;;16.90;10.98;;;20.10;99.90;;;;;;5033791;28;20441;-76
2021/05/01 03:58:00;;;;;;;23.40;13.60;;;19.90;99.90;;;;;;5031803;28;20048;-75
2021/05/01 04:00:25;;;;;;;19.10;12.52;;;19.80;99.90;;;;;;5034994;28;20029;-75
2021/05/01 04:02:52;;;;;;;16.25;11.63;;;19.60;99.90;;;;;;5034381;28;20128;-75
2021/05/01 04:05:18;;;;;;;20.48;12.55;;;19.60;99.90;;;;;;5033419;28;20467;-75
2021/05/01 04:07:44;;;;;;;17.13;13.27;;;19.40;99.90;;;;;;5030008;28;20116;-75
2021/05/01 04:10:10;;;;;;;17.30;12.35;;;19.40;99.90;;;;;;5031916;28;20026;-75
2021/05/01 04:12:36;;;;;;;20.10;13.32;;;19.30;99.90;;;;;;5032511;28;20026;-76
2021/05/01 04:15:03;;;;;;;19.42;13.43;;;19.30;99.90;;;;;;5031531;28;20029;-75
2021/05/01 04:17:28;;;;;;;14.65;11.05;;;19.30;99.90;;;;;;5032210;28;20033;-75
2021/05/01 04:19:54;;;;;;;13.30;10.43;;;19.20;99.90;;;;;;5032696;28;20485;-76
2021/05/01 04:22:23;;;;;;;14.32;11.38;;;19.00;99.90;;;;;;5031183;28;20025;-75
2021/05/01 04:24:50;;;;;;;15.63;12.10;;;19.00;99.90;;;;;;5032068;28;20036;-75
2021/05/01 04:27:16;;;;;;;21.48;13.48;;;19.10;99.90;;;;;;5033195;28;20049;-76
2021/05/01 04:29:42;;;;;;;20.15;12.20;;;18.80;99.90;;;;;;5031233;28;20514;-76
2021/05/01 04:32:08;;;;;;;15.88;12.02;;;18.90;99.90;;;;;;5034183;28;20021;-75
2021/05/01 04:34:34;;;;;;;17.55;12.52;;;18.60;99.90;;;;;;5031095;28;20065;-75
2021/05/01 04:37:00;;;;;;;17.85;12.13;;;18.50;99.90;;;;;;5034802;28;20057;-75
2021/05/01 04:39:25;;;;;;;17.33;11.68;;;18.20;99.90;;;;;;5029778;28;20033;-75
2021/05/01 04:41:53;;;;;;;13.07;11.40;;;18.20;99.90;;;;;;5030450;28;20547;-75
2021/05/01 04:44:20;;;;;;;14.98;12.23;;;18.10;99.90;;;;;;5029678;28;20018;-76
2021/05/01 04:46:52;;;;;;;16.10;12.18;;;18.20;99.90;;;;;;5032064;28;20087;-75
2021/05/01 04:49:18;;;;;;;16.83;11.70;;;18.00;99.90;;;;;;5030320;28;20415;-75
2021/05/01 04:51:44;;;;;;;14.05;10.13;;;17.90;99.90;;;;;;5033328;28;20555;-75
2021/05/01 04:54:10;;;;;;;11.90;9.85;;;17.70;99.90;;;;;;5029708;28;20834;-75
2021/05/01 04:56:36;;;;;;;17.13;11.75;;;17.70;99.90;;;;;;5030595;28;20072;-75
2021/05/01 04:59:03;;;;;;;16.83;11.57;;;17.80;99.90;;;;;;5031724;28;20021;-75
2021/05/01 05:01:29;;;;;;;14.25;10.93;;;17.70;99.90;;;;;;5030819;28;20077;-75
2021/05/01 05:03:55;;;;;;;15.35;12.45;;;17.70;99.90;;;;;;5032840;28;20021;-75
2021/05/01 05:06:21;;;;;;;15.25;11.52;;;17.60;99.90;;;;;;5030638;28;20522;-75
2021/05/01 05:08:47;;;;;;;17.02;10.98;;;17.60;99.90;;;;;;5048887;28;20069;-75
2021/05/01 05:11:12;;;;;;;14.10;10.90;;;17.60;99.90;;;;;;5037959;28;20509;-76
2021/05/01 05:13:38;;;;;;;14.07;10.55;;;17.60;99.90;;;;;;5036817;28;20030;-75
2021/05/01 05:16:04;;;;;;;17.38;10.68;;;17.70;99.90;;;;;;5032396;28;20049;-75
2021/05/01 05:18:30;;;;;;;12.63;9.35;;;17.60;99.90;;;;;;5033958;28;20036;-75
2021/05/01 05:20:56;;;;;;;11.75;9.38;;;17.50;99.90;;;;;;5034102;28;20391;-75
2021/05/01 05:23:21;;;;;;;11.60;9.45;;;17.50;99.90;;;;;;5031039;28;20083;-75
2021/05/01 05:25:47;;;;;;;17.20;10.65;;;17.50;99.90;;;;;;5031778;28;20132;-75
2021/05/01 05:28:13;;;;;;;10.52;9.43;;;17.50;99.90;;;;;;5032202;28;20033;-75
2021/05/01 05:30:39;;;;;;;12.32;8.13;;;17.50;99.90;;;;;;5032761;28;20561;-75
2021/05/01 05:33:04;;;;;;;9.18;8.27;;;17.40;99.90;;;;;;5034777;28;20045;-76
2021/05/01 05:35:30;;;;;;;8.35;7.40;;;17.30;99.90;;;;;;5029692;28;20033;-75
2021/05/01 05:37:56;;;;;;;10.45;9.35;;;17.20;99.90;;;;;;5036155;28;20018;-75
2021/05/01 05:40:22;;;;;;;9.80;8.80;;;17.10;99.90;;;;;;5031234;28;20066;-75
2021/05/01 05:42:49;;;;;;;12.02;10.32;;;17.00;99.90;;;;;;5030518;28;20076;-75
2021/05/01 05:45:25;;;;;;;10.13;9.13;;;17.00;99.90;;;;;;5033366;28;20468;-75
2021/05/01 05:47:51;;;;;;;13.68;9.82;;;16.90;99.90;;;;;;5032711;28;20395;-75
2021/05/01 05:50:17;;;;;;;9.02;8.13;;;16.90;99.90;;;;;;5035369;28;20018;-75
2021/05/01 05:52:42;;;;;;;13.48;10.02;;;16.80;99.90;;;;;;5030289;28;20437;-75
2021/05/01 05:55:09;;;;;;;11.77;8.10;;;16.70;99.90;;;;;;5034829;28;20021;-75
2021/05/01 05:57:37;;;;;;;10.52;9.50;;;16.70;99.90;;;;;;5030671;28;20036;-75
2021/05/01 06:00:06;;;;;;;8.07;7.30;;;16.70;99.90;;;;;;5030319;28;20022;-75
2021/05/01 06:02:34;;;;;;;10.60;9.20;;;16.80;99.90;;;;;;5030679;28;20046;-75
2021/05/01 06:05:10;;;;;;;12.52;9.07;;;17.30;99.90;;;;;;5029362;28;20029;-75
2021/05/01 06:07:55;;;;;;;6.88;6.22;;;17.90;99.90;;;;;;5032882;28;20391;-75
2021/05/01 06:10:23;;;;;;;9.35;6.03;;;18.20;99.90;;;;;;5038205;28;20505;-75
2021/05/01 06:12:51;;;;;;;6.32;5.72;;;18.10;99.90;;;;;;5034965;28;20372;-75
2021/05/01 06:15:17;;;;;;;6.20;5.60;;;17.90;99.90;;;;;;5035226;28;20013;-75
2021/05/01 06:17:44;;;;;;;7.07;6.20;;;17.70;99.90;;;;;;5034328;28;20029;-75
2021/05/01 06:20:12;;;;;;;7.35;6.65;;;17.60;99.90;;;;;;5045870;28;20163;-75
2021/05/01 06:22:39;;;;;;;8.32;6.85;;;17.40;99.90;;;;;;5055653;28;20069;-75
2021/05/01 06:25:07;;;;;;;9.93;8.55;;;17.30;99.90;;;;;;5044430;28;20021;-75
2021/05/01 06:27:33;;;;;;;8.27;7.45;;;17.20;99.90;;;;;;5038006;28;20079;-75
2021/05/01 06:30:01;;;;;;;8.25;7.35;;;17.10;99.90;;;;;;5038239;28;20084;-75
2021/05/01 06:32:26;;;;;;;9.82;6.38;;;17.00;99.90;;;;;;5034474;28;20033;-75
2021/05/01 06:34:54;;;;;;;9.20;7.55;;;16.70;99.90;;;;;;5034371;28;20047;-75
2021/05/01 06:37:22;;;;;;;8.23;7.43;;;16.60;99.90;;;;;;5034113;28;20136;-76
2021/05/01 06:39:50;;;;;;;8.75;7.85;;;16.30;99.90;;;;;;5034870;28;20026;-75
2021/05/01 06:42:24;;;;;;;9.13;8.23;;;16.10;99.90;;;;;;5037522;28;20056;-75
2021/05/01 06:44:54;;;;;;;9.43;8.02;;;16.10;99.90;;;;;;5040923;28;20056;-75
2021/05/01 06:47:25;;;;;;;11.13;9.20;;;16.10;99.90;;;;;;5037455;28;20040;-75
2021/05/01 06:49:53;;;;;;;9.73;7.95;;;15.90;99.90;;;;;;5053948;28;20057;-75
2021/05/01 06:52:21;;;;;;;8.25;7.45;;;15.70;99.90;;;;;;5035067;28;20083;-75
2021/05/01 06:54:50;;;;;;;10.52;8.75;;;15.70;99.90;;;;;;5033948;28;20678;-75
2021/05/01 06:57:24;;;;;;;7.85;7.05;;;15.60;99.90;;;;;;5032714;28;20033;-75
2021/05/01 06:59:58;;;;;;;8.48;7.63;;;15.50;99.90;;;;;;5034208;28;20072;-75
2021/05/01 07:02:37;;;;;;;10.73;9.23;;;15.40;99.90;;;;;;5043544;28;20042;-75
2021/05/01 07:05:03;;;;;;;12.77;9.13;;;15.40;99.90;;;;;;5033200;28;20053;-75
2021/05/01 07:07:29;;;;;;;9.65;8.75;;;15.40;99.90;;;;;;5035109;28;20018;-75
2021/05/01 07:09:56;;;;;;;12.40;9.32;;;15.10;99.90;;;;;;5040138;28;20025;-75
2021/05/01 07:12:24;;;;;;;12.18;9.85;;;15.00;99.90;;;;;;5032303;28;20557;-75
2021/05/01 07:14:51;;;;;;;11.02;9.15;;;14.90;99.90;;;;;;5037097;28;20032;-77
2021/05/01 07:17:17;;;;;;;13.05;9.50;;;14.80;99.90;;;;;;5033116;28;20025;-77
2021/05/01 07:19:44;;;;;;;10.85;9.75;;;14.70;99.90;;;;;;5037349;28;20029;-77
2021/05/01 07:22:11;;;;;;;12.10;10.00;;;14.60;99.90;;;;;;5030716;28;20025;-78
2021/05/01 07:24:37;;;;;;;11.18;9.80;;;14.50;99.90;;;;;;5039176;28;20022;-77
2021/05/01 07:27:05;;;;;;;11.35;9.82;;;14.50;99.90;;;;;;5032368;28;20025;-77
2021/05/01 07:29:39;;;;;;;11.23;10.07;;;14.30;99.90;;;;;;5042475;28;20048;-77
2021/05/01 07:32:07;;;;;;;10.60;8.75;;;14.30;99.90;;;;;;5034853;28;20060;-77
2021/05/01 07:34:34;;;;;;;13.20;10.10;;;14.30;99.90;;;;;;5033991;28;20483;-77
2021/05/01 07:37:04;;;;;;;11.38;9.23;;;14.30;99.90;;;;;;5033529;28;20036;-77
2021/05/01 07:39:31;;;;;;;9.20;8.27;;;14.40;99.90;;;;;;5032886;28;20029;-78
2021/05/01 07:42:03;;;;;;;12.77;10.40;;;14.40;99.90;;;;;;5041380;28;20022;-78
2021/05/01 07:44:33;;;;;;;14.68;10.02;;;14.40;99.90;;;;;;5034132;28;20118;-78
2021/05/01 07:47:02;;;;;;;13.40;10.40;;;14.40;99.90;;;;;;5048368;28;20021;-79
2021/05/01 07:49:30;;;;;;;10.75;9.55;;;14.40;99.90;;;;;;5037693;28;20044;-81
2021/05/01 07:51:56;;;;;;;11.23;9.88;;;14.30;99.90;;;;;;5033255;28;20033;-79
2021/05/01 07:54:22;;;;;;;10.90;9.80;;;14.20;99.90;;;;;;5033100;28;20030;-80
2021/05/01 07:56:48;;;;;;;11.05;9.02;;;14.20;99.90;;;;;;5033039;28;20104;-79
2021/05/01 07:59:14;;;;;;;13.68;9.07;;;14.10;99.90;;;;;;5033219;28;20107;-79
2021/05/01 08:01:42;;;;;;;11.65;9.25;;;13.90;99.90;;;;;;5038804;28;20511;-79
2021/05/01 08:04:09;;;;;;;10.20;9.20;;;13.90;99.90;;;;;;5038675;28;20112;-79
2021/05/01 08:06:36;;;;;;;10.23;9.05;;;14.00;99.90;;;;;;5052835;28;20421;-80
2021/05/01 08:09:03;;;;;;;15.20;9.52;;;13.80;99.90;;;;;;5052745;28;20055;-80
2021/05/01 08:11:28;;;;;;;10.73;8.85;;;13.80;99.90;;;;;;5052970;28;20064;-79
2021/05/01 08:13:54;;;;;;;13.68;10.70;;;13.80;99.90;;;;;;5052604;28;20048;-80
2021/05/01 08:16:20;;;;;;;15.00;11.38;;;14.00;99.90;;;;;;5052458;28;20025;-80
2021/05/01 08:18:46;;;;;;;10.98;9.85;;;14.00;99.90;;;;;;5048450;28;20028;-79
2021/05/01 08:21:12;;;;;;;13.75;11.45;;;13.90;99.90;;;;;;5042589;28;20395;-80
2021/05/01 08:23:37;;;;;;;16.27;12.73;;;14.10;99.90;;;;;;5031946;28;20025;-80
2021/05/01 08:26:05;;;;;;;13.48;11.65;;;14.40;99.90;;;;;;5048132;28;20112;-79
2021/05/01 08:28:31;;;;;;;12.23;10.70;;;14.40;99.90;;;;;;5045747;28;20397;-79
2021/05/01 08:30:57;;;;;;;12.55;10.80;;;14.50;99.90;;;;;;5038585;28;20434;-79
2021/05/01 08:33:23;;;;;;;14.57;11.23;;;14.50;99.90;;;;;;5032537;28;20029;-77
2021/05/01 08:35:49;;;;;;;13.95;10.45;;;14.50;99.90;;;;;;5031090;28;20029;-77
2021/05/01 08:38:15;;;;;;;13.70;11.27;;;14.60;99.90;;;;;;5032025;28;20395;-76
2021/05/01 08:40:41;;;;;;;12.63;10.93;;;14.60;99.90;;;;;;5037607;28;20022;-76
2021/05/01 08:43:07;;;;;;;12.68;10.60;;;14.80;99.90;;;;;;5033377;28;20025;-77
2021/05/01 08:45:33;;;;;;;13.40;11.25;;;14.80;99.90;;;;;;5034455;28;20029;-76
2021/05/01 08:48:00;;;;;;;13.10;10.68;;;14.80;99.90;;;;;;5041134;28;20136;-77
2021/05/01 08:50:26;;;;;;;12.07;9.57;;;14.90;99.90;;;;;;5035596;28;20032;-77
2021/05/01 08:52:53;;;;;;;13.10;9.45;;;14.70;99.90;;;;;;5050926;28;20033;-77
2021/05/01 08:55:22;;;;;;;8.25;7.00;;;14.50;99.90;;;;;;5052047;28;20024;-77
2021/05/01 08:57:47;;;;;;;7.68;6.82;;;14.60;99.90;;;;;;5051561;28;20478;-77
2021/05/01 09:00:14;;;;;;;7.15;5.45;;;14.20;99.90;;;;;;5051628;28;20032;-77
2021/05/01 09:02:41;;;;;;;8.93;8.02;;;13.90;99.90;;;;;;5044210;28;20508;-77
2021/05/01 09:05:09;;;;;;;8.13;6.45;;;14.00;99.90;;;;;;5051133;28;20018;-77
2021/05/01 09:07:38;;;;;;;9.07;6.45;;;14.10;99.90;;;;;;5052053;28;20045;-77
2021/05/01 09:10:06;;;;;;;10.20;6.25;;;13.90;99.90;;;;;;5050770;28;20021;-77
2021/05/01 09:12:44;;;;;;;10.20;6.07;;;13.80;99.90;;;;;;5052096;28;20029;-77
2021/05/01 09:15:25;;;;;;;9.05;7.15;;;13.70;99.90;;;;;;5050715;28;20045;-77
2021/05/01 09:18:05;;;;;;;8.00;7.22;;;13.80;99.90;;;;;;5034139;28;20030;-77
2021/05/01 09:20:32;;;;;;;13.40;7.97;;;14.00;99.90;;;;;;5032070;28;20025;-77
2021/05/01 09:23:03;;;;;;;8.75;7.28;;;14.00;99.90;;;;;;5032034;28;20368;-77
2021/05/01 09:25:32;;;;;;;10.95;9.95;;;13.90;99.90;;;;;;5031992;28;20513;-77
2021/05/01 09:28:03;;;;;;;10.63;8.63;;;14.00;99.90;;;;;;5031678;28;20033;-77
2021/05/01 09:30:31;;;;;;;10.13;8.88;;;14.00;99.90;;;;;;5031701;28;20018;-77
2021/05/01 09:33:25;;;;;;;8.98;8.00;;;14.20;99.90;;;;;;5032031;28;20034;-77
2021/05/01 09:36:12;;;;;;;12.07;8.10;;;14.30;99.90;;;;;;5031863;28;20025;-77
2021/05/01 09:38:51;;;;;;;13.07;9.38;;;14.30;99.90;;;;;;5032186;28;20029;-77
2021/05/01 09:41:25;;;;;;;11.82;9.30;;;14.40;99.90;;;;;;5012446;28;20018;-77
2021/05/01 09:44:13;;;;;;;8.70;7.80;;;14.50;99.90;;;;;;5015557;28;20045;-77
2021/05/01 09:46:39;;;;;;;10.27;9.25;;;14.30;99.90;;;;;;5016035;28;20443;-78
2021/05/01 09:49:13;;;;;;;12.45;10.82;;;14.50;99.90;;;;;;5045715;28;20068;-79
2021/05/01 09:51:45;;;;;;;9.52;8.10;;;14.60;99.90;;;;;;5042132;28;20029;-78
2021/05/01 09:54:12;;;;;;;8.40;7.47;;;14.40;99.90;;;;;;5047935;28;20513;-77
2021/05/01 09:56:40;;;;;;;8.23;7.43;;;14.30;99.90;;;;;;5036232;28;20377;-77
2021/05/01 09:59:07;;;;;;;9.95;8.93;;;14.40;99.90;;;;;;5034963;28;20026;-77
2021/05/01 10:01:32;;;;;;;10.80;7.70;;;14.50;99.90;;;;;;5035036;28;20129;-78
2021/05/01 10:04:15;;;;;;;9.02;8.18;;;14.60;99.90;;;;;;5034671;28;20425;-78
2021/05/01 10:06:44;;;;;;;7.45;6.75;;;14.70;99.90;;;;;;5034294;28;20843;-78
2021/05/01 10:09:09;;;;;;;7.68;6.88;;;14.60;99.90;;;;;;5035924;28;20122;-78
2021/05/01 10:11:35;;;;;;;6.90;6.22;;;14.70;99.90;;;;;;5051868;28;20491;-78
2021/05/01 10:14:02;;;;;;;7.70;6.88;;;14.70;99.90;;;;;;5054269;28;20060;-77
2021/05/01 10:16:30;;;;;;;8.35;7.55;;;14.80;99.90;;;;;;5055461;28;20036;-78
2021/05/01 10:19:12;;;;;;;9.13;7.05;;;14.80;99.90;;;;;;5051761;28;20100;-77
2021/05/01 10:21:44;;;;;;;7.20;6.50;;;15.00;99.90;;;;;;5054515;28;20374;-77
2021/05/01 10:24:10;;;;;;;9.80;7.40;;;15.10;99.90;;;;;;5053886;28;20033;-78
2021/05/01 10:26:54;;;;;;;8.15;6.70;;;15.30;99.90;;;;;;5055172;28;20029;-77
2021/05/01 10:29:25;;;;;;;7.00;6.40;;;15.30;99.90;;;;;;5054770;28;20033;-77
2021/05/01 10:31:55;;;;;;;8.02;7.18;;;15.20;99.90;;;;;;5053258;28;20390;-77
2021/05/01 10:34:26;;;;;;;6.95;6.25;;;15.10;99.90;;;;;;5053978;28;20470;-77
2021/05/01 10:36:59;;;;;;;7.45;6.75;;;15.00;99.90;;;;;;5015589;28;20116;-76
2021/05/01 10:39:25;;;;;;;6.38;5.78;;;14.90;99.90;;;;;;5049574;28;20060;-78
2021/05/01 10:41:56;;;;;;;5.95;5.45;;;14.80;99.90;;;;;;5036100;28;20122;-84
2021/05/01 10:44:22;;;;;;;7.10;6.05;;;14.80;99.90;;;;;;5038811;28;20515;-85
2021/05/01 10:46:49;;;;;;;5.40;4.90;;;14.70;99.90;;;;;;5051644;28;20051;-81
2021/05/01 10:49:15;;;;;;;6.00;5.28;;;14.70;99.90;;;;;;5046820;28;20021;-84
2021/05/01 10:51:46;;;;;;;6.68;5.25;;;14.80;99.90;;;;;;5033884;28;20027;-84
2021/05/01 10:54:12;;;;;;;6.78;5.47;;;14.80;99.90;;;;;;5029804;28;20026;-85
2021/05/01 10:56:44;;;;;;;5.47;4.97;;;14.60;99.90;;;;;;5032585;28;20056;-85
2021/05/01 10:59:22;;;;;;;6.55;5.65;;;14.60;99.90;;;;;;5034780;28;20079;-84
2021/05/01 11:01:52;;;;;;;5.55;5.05;;;14.70;99.90;;;;;;5032968;28;20099;-84
2021/05/01 11:04:28;;;;;;;5.85;5.25;;;14.70;99.90;;;;;;5033087;28;20100;-84
2021/05/01 11:07:11;;;;;;;7.57;5.15;;;14.80;99.90;;;;;;5029488;28;20030;-84
2021/05/01 11:09:43;;;;;;;5.75;4.75;;;15.00;99.90;;;;;;5032963;28;20029;-85
2021/05/01 11:12:11;;;;;;;5.55;5.05;;;14.90;99.90;;;;;;5032450;28;20056;-84
2021/05/01 11:14:41;;;;;;;6.72;6.13;;;15.00;99.90;;;;;;5041316;28;20425;-83
2021/05/01 11:17:28;;;;;;;13.30;11.97;;;15.00;99.90;;;;;;5050191;28;20160;-84
2021/05/01 11:20:02;;;;;;;7.13;6.43;;;15.10;99.90;;;;;;5038506;28;20294;-84
2021/05/01 11:22:28;;;;;;;14.50;10.43;;;15.00;99.90;;;;;;5052266;28;20434;-83
2021/05/01 11:24:57;;;;;;;7.30;6.65;;;15.20;99.90;;;;;;5053799;28;20028;-82
2021/05/01 11:27:23;;;;;;;5.60;5.13;;;15.30;99.90;;;;;;5053110;28;20059;-82
2021/05/01 11:29:51;;;;;;;8.90;5.97;;;15.40;99.90;;;;;;5053994;28;20271;-82
2021/05/01 11:32:18;;;;;;;5.32;4.82;;;15.60;99.90;;;;;;5053287;28;20024;-84
2021/05/01 11:34:58;;;;;;;5.88;5.28;;;15.50;99.90;;;;;;5032945;28;20037;-83
2021/05/01 11:37:26;;;;;;;5.50;4.55;;;15.60;99.90;;;;;;5035397;28;20025;-84
2021/05/01 11:39:53;;;;;;;5.80;5.30;;;15.60;99.90;;;;;;5052348;28;20069;-83
2021/05/01 11:42:22;;;;;;;5.28;4.78;;;15.60;99.90;;;;;;5049793;28;20025;-83
2021/05/01 11:44:50;;;;;;;6.13;5.30;;;15.60;99.90;;;;;;5033831;28;20030;-83
2021/05/01 11:47:20;;;;;;;5.88;5.20;;;15.70;99.90;;;;;;5041205;28;20541;-85
2021/05/01 11:49:47;;;;;;;6.43;5.45;;;15.90;99.90;;;;;;5052904;28;20033;-85
2021/05/01 11:52:29;;;;;;;5.85;5.35;;;15.80;99.90;;;;;;5048259;28;20025;-86
2021/05/01 11:55:04;;;;;;;8.18;6.30;;;16.00;99.90;;;;;;5046116;28;20119;-83
2021/05/01 11:57:47;;;;;;;6.40;5.90;;;16.20;99.90;;;;;;5053536;28;20029;-84
2021/05/01 12:00:27;;;;;;;5.80;5.03;;;16.30;99.90;;;;;;5053657;28;20164;-83
2021/05/01 12:02:54;;;;;;;5.72;5.22;;;16.20;99.90;;;;;;5053099;28;20040;-83
2021/05/01 12:05:23;;;;;;;6.32;5.43;;;16.30;99.90;;;;;;5038185;28;20033;-83
2021/05/01 12:08:09;;;;;;;6.45;5.20;;;16.50;99.90;;;;;;5032898;28;20014;-82
2021/05/01 12:10:42;;;;;;;7.32;6.53;;;16.50;99.90;;;;;;5033833;28;20028;-83
2021/05/01 12:13:19;;;;;;;7.18;6.35;;;16.50;99.90;;;;;;5035807;28;20036;-82
2021/05/01 12:15:50;;;;;;;7.38;5.35;;;16.70;99.90;;;;;;5053140;28;20024;-83
2021/05/01 12:18:17;;;;;;;5.28;4.78;;;16.40;99.90;;;;;;5037517;28;20101;-78
2021/05/01 12:20:43;;;;;;;7.13;6.53;;;16.10;99.90;;;;;;5032249;28;20103;-82
2021/05/01 12:23:14;;;;;;;7.20;6.50;;;16.50;99.90;;;;;;5039920;28;20088;-82
2021/05/01 12:25:43;;;;;;;6.53;5.93;;;17.00;99.90;;;;;;5041026;28;20032;-81
2021/05/01 12:28:10;;;;;;;5.90;5.30;;;16.90;99.90;;;;;;5037687;28;20021;-81
2021/05/01 12:30:39;;;;;;;6.28;4.85;;;16.50;99.90;;;;;;5040840;28;20039;-80
2021/05/01 12:33:32;;;;;;;5.80;4.88;;;17.00;99.90;;;;;;5032292;28;20022;-80
2021/05/01 12:36:06;;;;;;;6.13;5.03;;;17.00;99.90;;;;;;5034525;28;20108;-80
2021/05/01 12:38:35;;;;;;;7.43;5.20;;;17.10;99.90;;;;;;5040862;28;20025;-80
2021/05/01 12:41:10;;;;;;;4.97;4.10;;;16.70;99.90;;;;;;5038578;28;20048;-79
2021/05/01 12:43:37;;;;;;;7.30;5.50;;;16.60;99.90;;;;;;5032616;28;20272;-79